Time;durP1;ratioP1;P1;durP2;ratioP2;P2;SDS_P1;SDS_P2;PMS_P1;PMS_P2;Temp;Humidity;BMP_temperature;BMP_pressure;BME280_temperature;BME280_humidity;BME280_pressure;Samples;Min_cycle;Max_cycle;Signal;HPM_P1;HPM_P2
2022/01/25 00:24:34;;;;;;;8.93;8.13;;;14.60;46.00;;;;;;5128417;28;20051;-65
2022/01/25 00:32:29;;;;;;;10.13;9.23;;;14.50;46.00;;;;;;5089339;27;20429;-66
2022/01/25 00:34:55;;;;;;;10.23;9.23;;;14.50;46.00;;;;;;5088191;28;20048;-65
2022/01/25 00:37:20;;;;;;;9.65;8.73;;;14.50;46.10;;;;;;5088025;28;20492;-66
2022/01/25 00:39:46;;;;;;;10.30;9.38;;;14.50;46.10;;;;;;5088011;28;20045;-65
2022/01/25 00:42:12;;;;;;;10.27;9.40;;;14.50;46.10;;;;;;5088047;28;20123;-66
2022/01/25 00:44:40;;;;;;;10.05;9.07;;;14.50;46.10;;;;;;5087857;28;20044;-66
2022/01/25 00:47:07;;;;;;;11.07;9.95;;;14.50;46.10;;;;;;5087913;28;20044;-65
2022/01/25 00:49:39;;;;;;;10.80;9.77;;;14.50;46.10;;;;;;5087547;28;20046;-66
2022/01/25 00:53:53;;;;;;;9.20;8.40;;;14.50;46.00;;;;;;5087788;28;20052;-65
2022/01/25 00:54:57;;;;;;;8.50;7.50;;;14.40;46.10;;;;;;5087839;28;20045;-65
2022/01/25 00:57:26;;;;;;;7.28;6.68;;;14.40;46.20;;;;;;5087602;28;20044;-65
2022/01/25 00:59:51;;;;;;;6.78;6.18;;;14.50;46.30;;;;;;5088884;28;20035;-65
2022/01/25 01:02:17;;;;;;;6.95;6.28;;;14.60;46.20;;;;;;5087554;28;20123;-67
2022/01/25 01:04:43;;;;;;;5.97;5.40;;;14.70;46.00;;;;;;5087755;28;20135;-66
2022/01/25 01:07:13;;;;;;;6.68;5.82;;;14.90;45.80;;;;;;5088868;28;20395;-67
2022/01/25 01:09:41;;;;;;;6.17;5.57;;;15.10;45.50;;;;;;5087710;28;20040;-65
2022/01/25 01:12:15;;;;;;;5.88;5.32;;;15.40;45.20;;;;;;5088745;28;20434;-67
2022/01/25 01:31:36;;;;;;;6.00;5.50;;;16.70;42.60;;;;;;5088996;28;20454;-65
2022/01/25 01:40:07;;;;;;;6.07;5.57;;;16.80;42.40;;;;;;5129083;28;20125;-66
2022/01/25 01:45:26;;;;;;;6.63;6.03;;;16.60;42.30;;;;;;5128720;28;20050;-67
2022/01/25 01:48:00;;;;;;;6.97;6.38;;;16.60;42.30;;;;;;5128027;27;20097;-66
2022/01/25 01:50:28;;;;;;;6.75;6.18;;;16.50;42.30;;;;;;5128083;28;20039;-65
2022/01/25 01:52:56;;;;;;;6.95;6.35;;;16.50;42.30;;;;;;5129191;27;20031;-67
2022/01/25 01:55:23;;;;;;;7.40;6.70;;;16.40;42.30;;;;;;5129959;27;20051;-67
2022/01/25 01:57:49;;;;;;;7.63;6.85;;;16.40;42.40;;;;;;5128640;28;20042;-66
2022/01/25 02:00:17;;;;;;;7.80;7.10;;;16.30;42.50;;;;;;5128778;28;20035;-67
2022/01/25 02:02:43;;;;;;;7.97;7.28;;;16.20;42.50;;;;;;5129782;27;20092;-66
2022/01/25 02:05:12;;;;;;;8.05;7.30;;;16.20;42.70;;;;;;5129684;28;20444;-66
2022/01/25 02:07:40;;;;;;;8.20;7.40;;;16.10;42.70;;;;;;5128693;28;20064;-66
2022/01/25 02:10:07;;;;;;;8.55;7.70;;;16.00;42.80;;;;;;5128454;28;20047;-66
2022/01/25 02:12:33;;;;;;;8.75;7.85;;;15.90;43.00;;;;;;5129528;27;20047;-65
2022/01/25 02:15:02;;;;;;;8.07;7.38;;;15.80;43.10;;;;;;5125132;28;20050;-66
2022/01/25 02:22:51;;;;;;;9.75;8.75;;;15.60;43.40;;;;;;5130251;27;20350;-66
2022/01/25 02:25:16;;;;;;;9.93;9.02;;;15.50;43.70;;;;;;5129125;28;20051;-67
2022/01/25 02:27:42;;;;;;;8.73;7.93;;;15.40;43.80;;;;;;5129324;28;20043;-66
2022/01/25 02:30:08;;;;;;;9.15;8.25;;;15.40;43.90;;;;;;5130177;28;20036;-66
2022/01/25 02:32:34;;;;;;;8.88;8.07;;;15.30;43.90;;;;;;5129002;28;20058;-66
2022/01/25 02:35:02;;;;;;;8.95;8.15;;;15.30;44.00;;;;;;5130089;28;20032;-65
2022/01/25 02:37:29;;;;;;;8.57;7.78;;;15.30;44.10;;;;;;5128703;28;20081;-66
2022/01/25 02:39:59;;;;;;;8.32;7.63;;;15.30;44.20;;;;;;5130056;27;20039;-67
2022/01/25 02:42:25;;;;;;;8.60;7.43;;;15.30;44.20;;;;;;5128609;28;20534;-66
2022/01/25 02:44:51;;;;;;;9.40;8.48;;;15.20;44.20;;;;;;5128599;28;20119;-67
2022/01/25 02:50:06;;;;;;;7.90;7.10;;;15.30;44.30;;;;;;5128270;28;20057;-66
2022/01/25 02:52:31;;;;;;;7.65;6.90;;;15.20;44.30;;;;;;5128720;28;20051;-66
2022/01/25 02:54:57;;;;;;;7.53;6.82;;;15.30;44.40;;;;;;5129717;27;20050;-66
2022/01/25 02:57:23;;;;;;;8.07;7.28;;;15.30;44.40;;;;;;5128427;28;20043;-66
2022/01/25 02:59:49;;;;;;;8.10;7.22;;;15.20;44.40;;;;;;5129395;27;20046;-66
2022/01/25 03:02:15;;;;;;;8.88;8.07;;;15.30;44.40;;;;;;5128093;28;20487;-66
2022/01/25 03:04:42;;;;;;;9.00;8.13;;;15.30;44.40;;;;;;5129455;28;20546;-66
2022/01/25 03:07:08;;;;;;;9.10;8.18;;;15.30;44.30;;;;;;5129635;27;20042;-66
2022/01/25 03:09:34;;;;;;;9.60;8.57;;;15.30;44.30;;;;;;5128170;28;20036;-65
2022/01/25 03:12:03;;;;;;;8.40;7.60;;;15.20;44.20;;;;;;5128381;28;20062;-67
2022/01/25 03:14:32;;;;;;;9.00;8.10;;;15.20;44.20;;;;;;5129149;27;20432;-67
2022/01/25 03:24:57;;;;;;;10.15;9.07;;;15.10;44.30;;;;;;5152897;27;1160238;-66
2022/01/25 03:27:22;;;;;;;9.38;8.52;;;15.10;44.30;;;;;;5153158;27;20047;-66
2022/01/25 03:29:48;;;;;;;9.15;8.25;;;15.10;44.40;;;;;;5153260;27;20042;-66
2022/01/25 03:32:14;;;;;;;9.65;8.75;;;15.00;44.40;;;;;;5153084;27;20569;-66
2022/01/25 03:34:42;;;;;;;9.30;8.40;;;15.00;44.40;;;;;;5153201;27;20038;-66
2022/01/25 03:37:08;;;;;;;10.45;9.38;;;15.00;44.40;;;;;;5152880;27;20043;-66
2022/01/25 03:39:37;;;;;;;10.57;8.98;;;15.00;44.50;;;;;;5171500;27;20035;-66
2022/01/25 03:42:07;;;;;;;10.23;9.23;;;15.00;44.50;;;;;;5153079;27;20034;-65
2022/01/25 03:44:39;;;;;;;9.13;8.25;;;15.00;44.50;;;;;;5152612;27;20074;-65
2022/01/25 03:47:10;;;;;;;9.40;8.45;;;15.00;44.50;;;;;;5153152;27;20138;-66
2022/01/25 03:49:53;;;;;;;10.38;9.38;;;14.90;44.50;;;;;;5152707;27;20035;-66
2022/01/25 03:52:27;;;;;;;10.13;9.13;;;14.90;44.50;;;;;;5171679;27;20049;-65
2022/01/25 03:54:54;;;;;;;10.10;9.10;;;14.90;44.50;;;;;;5171150;27;20027;-66
2022/01/25 03:57:20;;;;;;;8.85;7.85;;;14.90;44.50;;;;;;5152961;27;20030;-66
2022/01/25 03:59:46;;;;;;;9.73;8.57;;;14.90;44.50;;;;;;5152466;27;20091;-66
2022/01/25 04:02:15;;;;;;;9.38;8.48;;;14.90;44.60;;;;;;5152316;27;20034;-67
2022/01/25 04:04:41;;;;;;;10.43;9.35;;;14.90;44.60;;;;;;5152245;27;20125;-65
2022/01/25 04:07:10;;;;;;;9.48;8.27;;;14.90;44.60;;;;;;5152198;27;20441;-65
2022/01/25 04:09:37;;;;;;;9.45;8.48;;;14.90;44.60;;;;;;5152547;27;20382;-66
2022/01/25 04:12:03;;;;;;;10.30;8.48;;;14.90;44.70;;;;;;5171096;27;20381;-65
2022/01/25 04:14:29;;;;;;;9.57;8.65;;;14.90;44.70;;;;;;5170892;27;20475;-65
2022/01/25 04:17:01;;;;;;;9.80;8.85;;;14.90;44.70;;;;;;5152350;27;20123;-66
2022/01/25 04:19:46;;;;;;;9.38;8.48;;;14.90;44.70;;;;;;5152047;27;20049;-65
2022/01/25 04:25:22;;;;;;;9.05;8.15;;;14.90;44.70;;;;;;5130232;27;20455;-66
2022/01/25 04:27:38;;;;;;;10.73;8.95;;;14.90;44.70;;;;;;5130120;28;20059;-65
2022/01/25 04:30:05;;;;;;;9.48;8.43;;;14.90;44.70;;;;;;5128900;28;20118;-65
2022/01/25 04:32:42;;;;;;;10.00;9.00;;;14.90;44.70;;;;;;5129100;28;20097;-66
2022/01/25 04:35:29;;;;;;;9.80;8.48;;;14.90;44.70;;;;;;5128882;28;20471;-65
2022/01/25 04:49:14;;;;;;;9.98;9.07;;;14.80;44.70;;;;;;5129562;27;20039;-66
2022/01/25 04:54:46;;;;;;;10.18;9.10;;;14.80;44.70;;;;;;5150897;27;20640;-66
2022/01/25 05:00:04;;;;;;;10.23;8.80;;;14.80;44.70;;;;;;5089353;27;20413;-66
2022/01/25 05:05:20;;;;;;;9.75;8.80;;;14.80;44.70;;;;;;5130267;27;20407;-66
2022/01/25 05:07:55;;;;;;;10.05;8.88;;;14.80;44.70;;;;;;5128793;28;20547;-66
2022/01/25 05:10:21;;;;;;;10.18;9.18;;;14.80;44.70;;;;;;5128908;28;20068;-66
2022/01/25 05:12:54;;;;;;;9.77;8.88;;;14.80;44.70;;;;;;5128955;28;20048;-65
2022/01/25 05:15:25;;;;;;;10.05;9.15;;;14.80;44.70;;;;;;5129041;28;20066;-65
2022/01/25 05:18:35;;;;;;;9.48;8.48;;;14.80;44.70;;;;;;5128637;28;20540;-66
2022/01/25 05:23:23;;;;;;;10.38;8.32;;;14.80;44.70;;;;;;5128527;28;20453;-65
2022/01/25 05:25:48;;;;;;;9.48;8.48;;;14.80;44.70;;;;;;5129958;28;20027;-66
2022/01/25 05:28:14;;;;;;;9.90;8.90;;;14.80;44.70;;;;;;5129809;28;20076;-65
2022/01/25 05:30:40;;;;;;;8.90;8.00;;;14.80;44.70;;;;;;5129734;28;20035;-65
2022/01/25 05:33:05;;;;;;;9.85;8.85;;;14.80;44.70;;;;;;5129664;27;20077;-65
2022/01/25 05:35:31;;;;;;;9.43;8.52;;;14.80;44.70;;;;;;5128379;28;20040;-66
2022/01/25 05:37:57;;;;;;;9.65;7.85;;;14.80;44.70;;;;;;5128298;28;20082;-66
2022/01/25 05:46:18;;;;;;;9.48;8.57;;;14.80;44.70;;;;;;5142910;27;20127;-65
2022/01/25 05:48:46;;;;;;;9.85;8.85;;;14.80;44.70;;;;;;5111754;28;20548;-65
2022/01/25 05:51:12;;;;;;;10.23;9.18;;;14.80;44.70;;;;;;5112035;28;20035;-65
2022/01/25 05:53:40;;;;;;;9.15;8.25;;;14.80;44.70;;;;;;5112015;28;20035;-65
2022/01/25 05:56:06;;;;;;;10.32;9.23;;;14.80;44.70;;;;;;5111969;28;20047;-66
2022/01/25 05:58:31;;;;;;;10.82;9.73;;;14.80;44.70;;;;;;5111966;28;20050;-66
2022/01/25 06:00:57;;;;;;;9.05;8.18;;;14.80;44.70;;;;;;5111522;28;20085;-66
2022/01/25 06:03:23;;;;;;;10.50;9.50;;;14.80;44.70;;;;;;5111911;28;20118;-66
2022/01/25 06:05:48;;;;;;;9.07;8.18;;;14.80;44.70;;;;;;5129880;28;20534;-66
2022/01/25 06:08:17;;;;;;;10.07;8.95;;;14.80;44.70;;;;;;5129842;28;20050;-65
2022/01/25 06:10:42;;;;;;;9.93;8.95;;;14.80;44.70;;;;;;5111720;28;20216;-65
2022/01/25 06:13:11;;;;;;;10.27;9.27;;;14.80;44.70;;;;;;5111530;28;20649;-65
2022/01/25 06:15:36;;;;;;;10.13;9.10;;;14.80;44.70;;;;;;5111238;28;20253;-65
2022/01/25 06:18:02;;;;;;;10.23;9.07;;;14.80;44.70;;;;;;5111560;28;20130;-66
2022/01/25 06:20:28;;;;;;;10.45;9.45;;;14.80;44.70;;;;;;5129710;28;20393;-65
2022/01/25 06:22:57;;;;;;;9.07;8.18;;;14.80;44.70;;;;;;5111194;28;20094;-66
2022/01/25 06:25:23;;;;;;;8.20;7.30;;;14.80;44.70;;;;;;5106217;28;20082;-69
2022/01/25 06:27:48;;;;;;;6.93;5.95;;;14.80;45.10;;;;;;5108533;28;20040;-68
2022/01/25 06:30:17;;;;;;;8.60;7.45;;;14.90;46.20;;;;;;5093725;28;20062;-68
2022/01/25 06:32:44;;;;;;;6.72;5.88;;;15.10;46.80;;;;;;5095030;28;20050;-69
2022/01/25 06:35:10;;;;;;;7.20;6.60;;;15.40;46.90;;;;;;5090476;28;20073;-72
2022/01/25 06:37:36;;;;;;;8.07;7.05;;;15.70;47.10;;;;;;5120552;28;20059;-70
2022/01/25 06:40:05;;;;;;;9.05;7.07;;;16.00;46.80;;;;;;5094182;28;20085;-68
2022/01/25 06:42:31;;;;;;;6.55;5.95;;;16.40;46.60;;;;;;5125271;28;20034;-69
2022/01/25 06:45:02;;;;;;;6.65;5.93;;;16.70;46.10;;;;;;5091236;28;20039;-69
2022/01/25 06:47:28;;;;;;;;;;;17.00;45.70;;;;;;5098727;28;20051;-68
2022/01/25 06:49:54;;;;;;;7.72;6.93;;;17.30;45.50;;;;;;5108880;28;20422;-71
2022/01/25 06:52:20;;;;;;;8.02;7.22;;;17.50;44.80;;;;;;5104409;28;20032;-69
2022/01/25 06:54:48;;;;;;;8.10;7.28;;;17.70;44.40;;;;;;5088406;28;20493;-70
2022/01/25 06:57:14;;;;;;;8.32;7.35;;;17.90;44.10;;;;;;5104283;28;20244;-69
2022/01/25 06:59:42;;;;;;;7.57;6.72;;;18.10;43.70;;;;;;5073706;28;20046;-70
2022/01/25 07:02:08;;;;;;;6.93;6.20;;;18.30;43.30;;;;;;5093081;28;20094;-70
2022/01/25 07:04:34;;;;;;;7.05;6.22;;;18.40;43.00;;;;;;5110044;28;20043;-71
2022/01/25 07:07:00;;;;;;;13.57;8.35;;;18.50;42.60;;;;;;5100685;28;20038;-70
2022/01/25 07:09:25;;;;;;;14.00;7.82;;;18.60;42.50;;;;;;5075801;28;20036;-72
2022/01/25 07:11:51;;;;;;;10.13;7.43;;;18.70;42.30;;;;;;5098715;28;20031;-70
2022/01/25 07:14:17;;;;;;;11.63;7.30;;;18.80;42.10;;;;;;5105474;28;20446;-70
2022/01/25 07:16:42;;;;;;;9.02;7.53;;;18.90;42.00;;;;;;5086675;28;20077;-71
2022/01/25 07:19:08;;;;;;;9.60;7.43;;;19.00;41.90;;;;;;5084520;28;20101;-71
2022/01/25 07:21:33;;;;;;;7.97;6.13;;;19.10;41.80;;;;;;5107281;28;20066;-70
2022/01/25 07:24:02;;;;;;;8.45;7.18;;;19.20;41.80;;;;;;5097259;28;20048;-71
2022/01/25 07:26:31;;;;;;;15.63;14.00;;;19.20;41.60;;;;;;5101188;28;20036;-72
2022/01/25 07:28:57;;;;;;;20.08;17.85;;;19.30;40.70;;;;;;5068830;28;20608;-70
2022/01/25 07:31:25;;;;;;;25.90;19.80;;;19.30;39.50;;;;;;5079552;27;20498;-69
2022/01/25 07:33:51;;;;;;;25.50;21.20;;;19.30;38.50;;;;;;5086448;28;20043;-70
2022/01/25 07:36:17;;;;;;;23.98;20.25;;;19.20;38.10;;;;;;5094166;27;20045;-69
2022/01/25 07:38:42;;;;;;;24.27;21.70;;;19.20;37.90;;;;;;5090722;27;20043;-69
2022/01/25 07:41:08;;;;;;;24.67;21.77;;;19.10;37.80;;;;;;5093939;27;20490;-71
2022/01/25 07:43:34;;;;;;;25.10;22.38;;;19.10;37.80;;;;;;5083964;28;20076;-70
2022/01/25 07:46:04;;;;;;;25.95;23.25;;;19.10;37.50;;;;;;5104987;27;20399;-69
2022/01/25 07:48:30;;;;;;;22.08;19.77;;;19.10;37.20;;;;;;5101475;27;20055;-74
2022/01/25 07:50:57;;;;;;;19.70;16.92;;;19.00;37.10;;;;;;5087816;27;20602;-66
2022/01/25 07:53:22;;;;;;;15.80;12.80;;;19.00;37.50;;;;;;5088299;27;20061;-69
2022/01/25 07:55:48;;;;;;;15.70;11.45;;;19.10;38.00;;;;;;5092564;27;20504;-71
2022/01/25 07:58:14;;;;;;;11.70;9.27;;;19.20;38.20;;;;;;5073476;27;20701;-69
2022/01/25 08:00:40;;;;;;;10.07;8.93;;;19.40;38.50;;;;;;5088472;27;20042;-67
2022/01/25 08:03:06;;;;;;;11.15;8.85;;;19.60;38.60;;;;;;5105571;27;20372;-67
2022/01/25 08:05:32;;;;;;;12.05;8.25;;;19.80;38.60;;;;;;5084525;28;20043;-66
2022/01/25 08:07:59;;;;;;;8.07;7.28;;;20.10;38.70;;;;;;5083401;27;20096;-68
2022/01/25 08:10:25;;;;;;;9.98;7.47;;;20.20;38.70;;;;;;5096929;27;20050;-69
2022/01/25 08:12:51;;;;;;;10.95;8.05;;;20.40;38.60;;;;;;5099533;27;20470;-65
2022/01/25 08:15:17;;;;;;;10.55;7.68;;;20.60;38.60;;;;;;5078439;28;20031;-68
2022/01/25 08:17:43;;;;;;;8.95;6.80;;;20.60;38.70;;;;;;5095939;27;20040;-67
2022/01/25 08:20:09;;;;;;;7.70;6.97;;;20.70;38.90;;;;;;5080868;28;20047;-68
2022/01/25 08:22:35;;;;;;;8.43;6.13;;;20.80;39.00;;;;;;5087017;28;20492;-67
2022/01/25 08:25:03;;;;;;;6.53;5.40;;;20.90;39.00;;;;;;5085106;27;20043;-66
2022/01/25 08:27:29;;;;;;;7.40;6.70;;;21.00;38.90;;;;;;5094941;27;20033;-68
2022/01/25 08:29:55;;;;;;;7.18;5.72;;;21.10;38.90;;;;;;5082277;27;20039;-68
2022/01/25 08:32:20;;;;;;;7.15;5.35;;;21.20;38.90;;;;;;5085471;27;20046;-66
2022/01/25 08:34:47;;;;;;;5.97;5.35;;;21.30;39.00;;;;;;5083086;28;20616;-68
2022/01/25 08:37:13;;;;;;;9.85;6.00;;;21.40;39.00;;;;;;5101422;27;20028;-67
2022/01/25 08:39:40;;;;;;;8.98;6.18;;;21.50;39.00;;;;;;5070110;27;20073;-71
2022/01/25 08:42:08;;;;;;;6.50;5.90;;;21.50;39.00;;;;;;5088902;28;20064;-67
2022/01/25 08:44:34;;;;;;;7.55;6.45;;;21.50;38.70;;;;;;5089090;28;20085;-68
2022/01/25 08:47:00;;;;;;;6.53;5.72;;;21.60;38.80;;;;;;5100109;27;20092;-66
2022/01/25 08:49:27;;;;;;;8.10;5.82;;;21.60;38.90;;;;;;5097803;27;20123;-65
2022/01/25 08:51:53;;;;;;;7.05;6.10;;;21.60;38.90;;;;;;5066071;28;20035;-67
2022/01/25 08:54:22;;;;;;;7.68;6.55;;;21.60;38.90;;;;;;5079652;28;20040;-70
2022/01/25 08:56:47;;;;;;;7.13;6.47;;;21.50;38.90;;;;;;5074092;28;20055;-67
2022/01/25 08:59:13;;;;;;;9.50;6.28;;;21.50;38.90;;;;;;5082897;27;20058;-65
2022/01/25 09:01:39;;;;;;;8.32;6.32;;;21.50;38.90;;;;;;5078983;27;20119;-67
2022/01/25 09:04:05;;;;;;;7.45;6.55;;;21.40;38.80;;;;;;5096394;27;20119;-67
2022/01/25 09:06:30;;;;;;;9.10;6.63;;;21.40;38.80;;;;;;5082265;28;20457;-69
2022/01/25 09:09:02;;;;;;;8.40;6.65;;;21.40;38.90;;;;;;5077294;28;20043;-69
2022/01/25 09:11:28;;;;;;;10.77;7.00;;;21.30;39.00;;;;;;5077933;28;20048;-69
2022/01/25 09:13:54;;;;;;;9.98;7.15;;;21.20;39.20;;;;;;5097758;27;20039;-67
2022/01/25 09:16:19;;;;;;;8.07;7.30;;;21.00;39.30;;;;;;5079401;27;20063;-68
2022/01/25 09:18:45;;;;;;;11.02;8.13;;;20.90;39.60;;;;;;5098931;27;20088;-67
2022/01/25 09:21:11;;;;;;;8.38;7.53;;;20.80;39.80;;;;;;5090405;27;20031;-67
2022/01/25 09:23:37;;;;;;;13.65;7.40;;;20.60;40.10;;;;;;5082946;28;20544;-67
2022/01/25 09:26:03;;;;;;;12.27;8.63;;;20.50;40.30;;;;;;5083925;27;20579;-67
2022/01/25 09:28:30;;;;;;;9.60;8.45;;;20.40;40.70;;;;;;5095752;28;20054;-68
2022/01/25 09:30:56;;;;;;;9.85;8.13;;;20.20;41.00;;;;;;5084910;28;20035;-68
2022/01/25 09:33:23;;;;;;;10.82;8.65;;;20.10;41.30;;;;;;5106812;27;20124;-69
2022/01/25 09:35:53;;;;;;;10.05;8.30;;;19.90;41.70;;;;;;5084267;28;20046;-69
2022/01/25 09:38:19;;;;;;;;;;;19.70;42.10;;;;;;5100113;27;20111;-68
2022/01/25 09:40:45;;;;;;;11.10;9.32;;;19.60;42.60;;;;;;5106155;28;20010;-67
2022/01/25 09:43:11;;;;;;;11.00;9.10;;;19.50;42.60;;;;;;5090787;28;20035;-69
2022/01/25 09:45:39;;;;;;;10.65;9.05;;;19.40;43.00;;;;;;5083133;28;20039;-68
2022/01/25 09:48:06;;;;;;;10.15;9.20;;;19.30;43.30;;;;;;5084982;28;20038;-70
2022/01/25 09:50:32;;;;;;;17.80;11.00;;;19.20;43.50;;;;;;5103971;28;20048;-71
2022/01/25 09:53:00;;;;;;;14.90;10.38;;;19.10;43.60;;;;;;5100433;28;20036;-69
2022/01/25 09:55:29;;;;;;;10.18;9.18;;;19.00;43.80;;;;;;5087117;28;20099;-69
2022/01/25 09:57:56;;;;;;;13.32;10.52;;;18.90;44.10;;;;;;5088286;28;20670;-68
2022/01/25 10:00:24;;;;;;;12.20;10.93;;;18.80;44.20;;;;;;5091327;28;20443;-67
2022/01/25 10:03:03;;;;;;;12.50;11.15;;;18.70;44.30;;;;;;5088071;28;20069;-68
2022/01/25 10:05:35;;;;;;;12.20;11.00;;;18.60;44.50;;;;;;5085564;28;20035;-69
2022/01/25 10:10:52;;;;;;;11.70;10.07;;;18.50;44.50;;;;;;5072593;27;21222;-67
2022/01/25 10:18:56;;;;;;;16.30;11.90;;;18.20;44.40;;;;;;5107975;27;1160964;-72
2022/01/25 10:24:24;;;;;;;11.63;10.50;;;18.20;44.40;;;;;;5095796;27;20497;-70
2022/01/25 10:29:34;;;;;;;15.07;11.55;;;18.10;44.80;;;;;;5108418;27;20915;-73
2022/01/25 10:32:04;;;;;;;;;;;18.00;45.10;;;;;;5105756;28;20047;-63
2022/01/25 10:34:34;;;;;;;14.33;10.17;;;18.00;45.10;;;;;;5089471;28;19972;-64
2022/01/25 10:37:07;;;;;;;11.75;10.02;;;18.00;44.90;;;;;;5114193;27;20289;-61
2022/01/25 10:39:36;;;;;;;12.02;9.30;;;18.00;44.80;;;;;;5102366;28;20040;-62
2022/01/25 10:42:08;;;;;;;11.82;8.95;;;18.00;44.80;;;;;;5099277;27;20031;-68
2022/01/25 10:47:49;;;;;;;12.13;10.68;;;18.00;45.30;;;;;;5108938;27;20163;-69
2022/01/25 10:55:51;;;;;;;12.70;10.00;;;17.90;46.20;;;;;;5112904;27;20402;-66
2022/01/25 10:58:17;;;;;;;10.65;9.50;;;17.80;46.20;;;;;;5117560;27;20078;-66
2022/01/25 11:00:46;;;;;;;12.40;9.77;;;17.80;46.50;;;;;;5110355;27;20443;-68
2022/01/25 11:03:28;;;;;;;12.30;10.27;;;17.80;46.70;;;;;;5104581;27;20040;-68
2022/01/25 11:05:55;;;;;;;11.70;8.95;;;17.80;48.30;;;;;;5110358;27;20059;-68
2022/01/25 11:08:23;;;;;;;11.43;8.60;;;17.70;47.20;;;;;;5115890;27;20047;-67
2022/01/25 11:10:55;;;;;;;11.25;8.20;;;17.80;47.30;;;;;;5113369;27;20058;-66
2022/01/25 11:16:11;;;;;;;19.65;17.65;;;18.30;47.20;;;;;;5094330;27;20335;-66
2022/01/25 11:18:38;;;;;;;16.33;12.80;;;18.70;44.60;;;;;;5090204;28;20048;-66
2022/01/25 11:21:07;;;;;;;12.10;10.35;;;19.00;43.40;;;;;;5089465;28;20079;-67
2022/01/25 11:23:35;;;;;;;10.38;8.98;;;19.30;43.40;;;;;;5092595;28;20036;-67
2022/01/25 11:26:04;;;;;;;10.80;8.85;;;19.60;43.10;;;;;;5104670;28;20051;-69
2022/01/25 11:28:31;;;;;;;10.00;8.18;;;20.00;42.70;;;;;;5089957;28;20039;-68
2022/01/25 11:31:00;;;;;;;10.68;8.93;;;20.20;42.40;;;;;;5101986;28;20089;-65
2022/01/25 11:33:31;;;;;;;8.98;8.18;;;20.50;42.00;;;;;;5091890;28;20048;-68
2022/01/25 11:35:57;;;;;;;12.65;10.10;;;20.70;41.70;;;;;;5088620;28;20052;-68
2022/01/25 11:38:32;;;;;;;18.33;13.35;;;21.00;41.10;;;;;;5090918;28;20060;-70
2022/01/25 11:40:58;;;;;;;14.73;10.63;;;21.10;38.80;;;;;;5092603;28;20036;-67
2022/01/25 11:43:24;;;;;;;11.25;9.35;;;21.30;38.70;;;;;;5091281;28;20093;-66
2022/01/25 11:45:50;;;;;;;12.60;9.60;;;21.30;38.50;;;;;;5089854;28;20089;-72
2022/01/25 11:48:24;;;;;;;15.35;12.45;;;21.40;38.40;;;;;;5104806;28;20056;-70
2022/01/25 11:50:50;;;;;;;11.93;9.77;;;21.50;37.30;;;;;;5092654;28;20047;-67
2022/01/25 11:53:19;;;;;;;10.80;8.70;;;21.50;37.60;;;;;;5108139;28;20434;-71
2022/01/25 11:55:48;;;;;;;9.43;8.00;;;21.70;37.60;;;;;;5089768;28;20036;-69
2022/01/25 12:03:58;;;;;;;8.85;6.20;;;22.00;37.50;;;;;;5108102;27;20747;-69
2022/01/25 12:06:30;;;;;;;6.63;5.97;;;22.10;37.40;;;;;;5095813;28;20139;-70
2022/01/25 12:11:58;;;;;;;16.30;11.77;;;22.10;37.30;;;;;;5129935;27;1157658;-70
2022/01/25 12:14:32;;;;;;;10.43;7.63;;;22.30;35.70;;;;;;5146940;27;20095;-72
2022/01/25 12:19:53;;;;;;;8.35;7.55;;;22.20;36.20;;;;;;5058548;27;20434;-65
2022/01/25 12:27:53;;;;;;;11.38;6.72;;;22.20;36.40;;;;;;5115661;27;20466;-70
2022/01/25 12:33:03;;;;;;;7.85;6.68;;;22.20;36.90;;;;;;5097083;27;20439;-69
2022/01/25 12:41:01;;;;;;;7.60;6.88;;;22.00;37.20;;;;;;5097723;27;20470;-67
2022/01/25 12:46:16;;;;;;;9.50;8.40;;;21.80;37.60;;;;;;5063198;28;20434;-67
2022/01/25 12:54:05;;;;;;;8.32;7.53;;;21.30;38.80;;;;;;5096930;27;20479;-64
2022/01/25 12:56:35;;;;;;;8.80;8.00;;;21.10;39.00;;;;;;5107846;28;20051;-68
2022/01/25 12:59:06;;;;;;;9.93;8.93;;;21.00;39.40;;;;;;5108140;28;20484;-66
2022/01/25 13:01:32;;;;;;;10.82;9.02;;;20.90;39.70;;;;;;5100197;28;20040;-66
2022/01/25 13:04:00;;;;;;;10.10;9.00;;;20.70;40.00;;;;;;5090531;28;20048;-67
2022/01/25 13:06:29;;;;;;;10.40;9.07;;;20.50;40.40;;;;;;5106276;27;20126;-69
2022/01/25 13:09:07;;;;;;;11.88;10.10;;;20.40;40.70;;;;;;5093046;28;20105;-67
2022/01/25 13:17:18;;;;;;;7.97;7.15;;;20.10;41.10;;;;;;5123513;27;1167891;-65
2022/01/25 13:27:56;;;;;;;8.23;7.30;;;20.10;41.20;;;;;;5103863;27;20941;-67
2022/01/25 13:30:45;;;;;;;7.50;6.03;;;20.20;41.10;;;;;;5092105;28;20035;-70
2022/01/25 13:33:17;;;;;;;6.57;5.28;;;20.30;41.30;;;;;;5094672;28;20801;-65
2022/01/25 13:35:49;;;;;;;6.60;4.97;;;20.40;41.30;;;;;;5101705;28;20648;-68
2022/01/25 13:46:33;;;;;;;7.68;4.57;;;20.50;41.40;;;;;;5111678;27;1178562;-67
2022/01/25 13:49:05;;;;;;;5.88;5.28;;;20.70;41.40;;;;;;5135626;27;20038;-67
2022/01/25 13:51:38;;;;;;;8.35;5.47;;;20.60;41.50;;;;;;5134401;27;20591;-67
2022/01/25 13:54:04;;;;;;;6.72;5.25;;;20.60;41.60;;;;;;5139119;27;20038;-68
2022/01/25 13:56:33;;;;;;;9.40;5.10;;;20.60;41.60;;;;;;5132008;27;20046;-66
2022/01/25 13:59:01;;;;;;;12.02;5.65;;;20.60;41.70;;;;;;5124155;27;20050;-66
2022/01/25 14:01:28;;;;;;;7.95;4.93;;;20.50;41.80;;;;;;5124832;27;20054;-66
2022/01/25 14:06:39;;;;;;;18.30;14.05;;;20.40;42.20;;;;;;5098213;27;20451;-67
2022/01/25 14:09:13;;;;;;;29.08;20.13;;;20.40;40.60;;;;;;5089020;28;20164;-67
2022/01/25 14:25:44;;;;;;;24.73;20.45;;;19.80;35.60;;;;;;5083889;27;20531;-68
2022/01/25 14:28:15;;;;;;;19.60;16.05;;;19.90;35.60;;;;;;5062657;28;20083;-65
2022/01/25 14:30:43;;;;;;;18.38;12.07;;;20.00;35.80;;;;;;5059874;28;20068;-66
2022/01/25 14:33:14;;;;;;;12.25;9.88;;;20.20;36.30;;;;;;5045508;28;20048;-67
2022/01/25 14:38:26;;;;;;;16.90;13.25;;;20.40;36.50;;;;;;5091427;28;20987;-68
2022/01/25 14:41:04;;;;;;;15.50;12.13;;;21.00;35.70;;;;;;5093531;28;20071;-67
2022/01/25 14:43:39;;;;;;;14.27;9.77;;;21.10;35.30;;;;;;5091096;28;20052;-70
2022/01/25 14:46:17;;;;;;;11.40;8.82;;;21.20;35.50;;;;;;5094158;28;20043;-67
2022/01/25 14:48:45;;;;;;;10.20;9.20;;;21.30;35.70;;;;;;5097455;28;20501;-66
2022/01/25 14:51:12;;;;;;;11.13;7.80;;;21.40;35.70;;;;;;5087249;28;20492;-65
2022/01/25 14:53:43;;;;;;;9.15;8.25;;;21.50;35.80;;;;;;5090892;28;20042;-65
2022/01/25 14:56:13;;;;;;;10.80;8.40;;;21.50;35.50;;;;;;5089116;28;20079;-76
2022/01/25 15:01:34;;;;;;;8.70;6.72;;;21.40;35.40;;;;;;5071718;27;20425;-66
2022/01/25 15:04:00;;;;;;;10.32;6.90;;;21.20;35.70;;;;;;5068706;28;20106;-66
2022/01/25 15:06:26;;;;;;;8.43;6.38;;;21.20;36.00;;;;;;5095932;28;20041;-66
2022/01/25 15:08:58;;;;;;;7.45;6.60;;;21.10;36.40;;;;;;5065017;28;20052;-68
2022/01/25 15:11:30;;;;;;;8.30;6.20;;;21.00;36.90;;;;;;5099587;27;20041;-68
2022/01/25 15:14:07;;;;;;;9.52;6.35;;;20.90;37.30;;;;;;5083858;28;20384;-69
2022/01/25 15:16:33;;;;;;;7.63;6.68;;;20.80;37.70;;;;;;5094698;28;20071;-66
2022/01/25 15:18:59;;;;;;;9.68;6.93;;;20.70;38.00;;;;;;5089377;28;20033;-68
2022/01/25 15:21:30;;;;;;;8.60;7.70;;;20.60;38.30;;;;;;5066133;28;20048;-68
2022/01/25 15:23:56;;;;;;;7.85;6.47;;;20.50;38.60;;;;;;5055441;28;20050;-68
2022/01/25 15:26:23;;;;;;;8.70;6.90;;;20.40;38.90;;;;;;5060388;28;20041;-67
2022/01/25 15:28:55;;;;;;;8.40;7.15;;;20.30;39.10;;;;;;5061536;28;20404;-68
2022/01/25 15:31:21;;;;;;;8.32;7.40;;;20.20;39.30;;;;;;5060362;28;20047;-68
2022/01/25 15:33:48;;;;;;;10.68;8.55;;;20.20;39.60;;;;;;5060364;28;20044;-62
2022/01/25 15:36:16;;;;;;;12.25;9.45;;;20.00;38.80;;;;;;5064763;28;20510;-62
2022/01/25 15:38:44;;;;;;;12.13;8.93;;;19.90;37.90;;;;;;5062873;28;20048;-63
2022/01/25 15:41:12;;;;;;;12.05;9.35;;;19.80;37.60;;;;;;5062102;28;20120;-63
2022/01/25 15:43:49;;;;;;;15.80;11.63;;;19.70;37.50;;;;;;5062263;28;20448;-63
2022/01/25 15:46:26;;;;;;;11.82;10.27;;;19.60;37.30;;;;;;5090125;28;20024;-63
2022/01/25 15:48:53;;;;;;;16.83;12.70;;;19.50;37.20;;;;;;5062677;28;20037;-62
2022/01/25 15:51:20;;;;;;;16.55;12.02;;;19.40;37.20;;;;;;5063289;28;20040;-62
2022/01/25 15:53:45;;;;;;;14.63;12.00;;;19.20;37.20;;;;;;5062310;28;20535;-62
2022/01/25 15:56:11;;;;;;;10.98;9.77;;;19.20;37.30;;;;;;5066406;28;20041;-63
2022/01/25 15:58:37;;;;;;;9.75;8.70;;;19.10;37.50;;;;;;5062357;28;20041;-62
2022/01/25 16:01:03;;;;;;;8.90;7.72;;;19.00;37.80;;;;;;5062174;28;20049;-62
2022/01/25 16:03:32;;;;;;;9.63;7.30;;;18.90;38.00;;;;;;5063799;28;20089;-62
2022/01/25 16:05:58;;;;;;;10.23;7.25;;;18.80;38.60;;;;;;5088712;28;20095;-62
2022/01/25 16:08:27;;;;;;;10.55;7.93;;;18.70;40.10;;;;;;5046678;28;20127;-62
2022/01/25 16:10:52;;;;;;;12.30;8.15;;;18.70;41.20;;;;;;5060642;28;20506;-66